Geraldine, MT (59446)

11:07 AM MDT on September 20, 2014 (GMT -0600)
Hawarden | Change Station
CLOSE
Current Station
Personal Weather Station
Location: Geraldine, MT
Elevation: 3087 ft
Nearby Weather Stations

Elev 3087 ft 47.61 °N, 110.09 °W | Updated 10 seconds ago

Clear
Clear
65.2 °F
Feels Like 65.2 °F
N
4.4
Wind Variable Wind from NNW
Gusts 7.0 mph

Today
High -- | Low -- °F
--% Chance of Precip.
Yesterday
High -- | Low -- °F
Precip. -- in
7:05 AM 7:22 PM
Waning Crescent, 11% visible
Pressure 30.27 in
Visibility 10.0 miles
Clouds Clear
Dew Point 44 °F
Humidity 47%
Rainfall 0.00 in
Snow Depth 1 in , 0 in , 0 in
UV 4 out of 12
Pollen 6.30 out of 12
Air Quality Not available.
Flu Activity Not available.
METAR KGFA 201656Z AUTO 17003KT 10SM CLR 17/06 A3027 RMK AO2 SLP248 T01740063

More Conditions Fewer Conditions

Pressure 30.27 in
Visibility 10.0 miles
Clouds Clear
Dew Point 44 °F
Humidity 47%
Rainfall 0.00 in
Snow Depth 1 in , 0 in , 0 in
UV 4 out of 12
Pollen 6.30 out of 12
Air Quality Not available.
Flu Activity Not available.
METAR KGFA 201656Z AUTO 17003KT 10SM CLR 17/06 A3027 RMK AO2 SLP248 T01740063

More Conditions Fewer Conditions

10-Day Weather Forecast

Almanac

Astronomy

Sep. 20, 2014 Rise Set
Actual Time 7:05 AM MDT 7:22 PM MDT
Civil Twilight 6:34 AM MDT 7:53 PM MDT
Nautical Twilight 5:58 AM MDT 8:29 PM MDT
Astronomical Twilight 5:20 AM MDT 9:07 PM MDT
Moon 3:36 AM MDT 5:37 PM MDT
Length of Visible Light 13h 19m
Length of Day
12h 17m
Tomorrow will be 3m 24s shorter.
Waning Crescent, 11% of the Moon is Illuminated
Today
Waning Crescent
Sep 24
New
Oct 1
First Quarter
Oct 8
Full
Oct 15
Last Quarter

Today's Extremes

State Highs State Lows

Community

WunderPhotos

Upload Photos

1,754,906 photos uploaded!

Nearby

Snow Depth

Station Depth Elevation
Shower Falls 1 in 8100 ft
Stuart Mountain 0 in 7400 ft
Stringer Creek 0 in 6550 ft
Rocker Peak 1 in 8000 ft
Sacajawea 1 in 6550 ft

Earthquake Activity

City Distance Mag. Time & Date
No recent earthquake activity has been reported nearby.
Minimum magnitude displayed is 2.5.

Coastal Water Temperatures

Place Temperature
No Stations Reporting

Nearby Weather Stations